sensor_id;sensor_type;location;lat;lon;timestamp;P1;durP1;ratioP1;P2;durP2;ratioP2
69419;SDS011;71621;52.030;113.516;2024-01-16T00:00:50;236.15;;;72.88;;
69419;SDS011;71621;52.030;113.516;2024-01-16T00:03:55;198.55;;;61.53;;
69419;SDS011;71621;52.030;113.516;2024-01-16T00:06:59;178.13;;;55.17;;
69419;SDS011;71621;52.030;113.516;2024-01-16T00:10:03;127.63;;;47.40;;
69419;SDS011;71621;52.030;113.516;2024-01-16T00:13:07;113.85;;;42.20;;
69419;SDS011;71621;52.030;113.516;2024-01-16T00:16:11;128.15;;;42.08;;
69419;SDS011;71621;52.030;113.516;2024-01-16T00:19:14;103.93;;;37.77;;
69419;SDS011;71621;52.030;113.516;2024-01-16T00:22:18;114.20;;;38.92;;
69419;SDS011;71621;52.030;113.516;2024-01-16T00:25:22;106.72;;;35.40;;
69419;SDS011;71621;52.030;113.516;2024-01-16T00:28:26;97.07;;;36.77;;
69419;SDS011;71621;52.030;113.516;2024-01-16T00:31:29;142.60;;;45.83;;
69419;SDS011;71621;52.030;113.516;2024-01-16T00:34:33;138.07;;;50.95;;
69419;SDS011;71621;52.030;113.516;2024-01-16T00:37:36;117.63;;;39.65;;
69419;SDS011;71621;52.030;113.516;2024-01-16T00:40:40;113.13;;;34.83;;
69419;SDS011;71621;52.030;113.516;2024-01-16T00:43:44;118.82;;;40.95;;
69419;SDS011;71621;52.030;113.516;2024-01-16T00:46:48;140.65;;;45.65;;
69419;SDS011;71621;52.030;113.516;2024-01-16T00:49:52;117.13;;;42.57;;
69419;SDS011;71621;52.030;113.516;2024-01-16T00:52:55;155.20;;;50.90;;
69419;SDS011;71621;52.030;113.516;2024-01-16T00:55:59;152.15;;;44.75;;
69419;SDS011;71621;52.030;113.516;2024-01-16T00:59:03;136.27;;;46.40;;
69419;SDS011;71621;52.030;113.516;2024-01-16T01:02:06;138.07;;;49.78;;
69419;SDS011;71621;52.030;113.516;2024-01-16T01:05:12;166.32;;;52.97;;
69419;SDS011;71621;52.030;113.516;2024-01-16T01:08:17;156.88;;;51.08;;
69419;SDS011;71621;52.030;113.516;2024-01-16T01:11:21;123.47;;;41.47;;
69419;SDS011;71621;52.030;113.516;2024-01-16T01:14:25;120.97;;;44.88;;
69419;SDS011;71621;52.030;113.516;2024-01-16T01:17:32;98.45;;;37.67;;
69419;SDS011;71621;52.030;113.516;2024-01-16T01:20:36;94.93;;;35.83;;
69419;SDS011;71621;52.030;113.516;2024-01-16T01:23:39;98.28;;;36.35;;
69419;SDS011;71621;52.030;113.516;2024-01-16T01:26:44;97.95;;;36.65;;
69419;SDS011;71621;52.030;113.516;2024-01-16T01:29:48;127.53;;;40.53;;
69419;SDS011;71621;52.030;113.516;2024-01-16T01:32:52;90.78;;;34.38;;
69419;SDS011;71621;52.030;113.516;2024-01-16T01:35:55;120.20;;;35.55;;
69419;SDS011;71621;52.030;113.516;2024-01-16T01:38:59;87.75;;;28.52;;
69419;SDS011;71621;52.030;113.516;2024-01-16T01:42:03;109.70;;;30.88;;
69419;SDS011;71621;52.030;113.516;2024-01-16T01:45:08;94.35;;;32.10;;
69419;SDS011;71621;52.030;113.516;2024-01-16T01:48:12;82.38;;;27.33;;
69419;SDS011;71621;52.030;113.516;2024-01-16T01:51:19;90.17;;;35.50;;
69419;SDS011;71621;52.030;113.516;2024-01-16T01:54:24;99.82;;;30.55;;
69419;SDS011;71621;52.030;113.516;2024-01-16T01:57:29;127.88;;;33.72;;
69419;SDS011;71621;52.030;113.516;2024-01-16T02:00:33;82.65;;;31.83;;
69419;SDS011;71621;52.030;113.516;2024-01-16T02:03:42;81.20;;;25.08;;
69419;SDS011;71621;52.030;113.516;2024-01-16T02:06:47;83.07;;;27.05;;
69419;SDS011;71621;52.030;113.516;2024-01-16T02:09:51;75.85;;;26.92;;
69419;SDS011;71621;52.030;113.516;2024-01-16T02:12:55;58.40;;;22.87;;
69419;SDS011;71621;52.030;113.516;2024-01-16T02:15:59;52.03;;;22.65;;
69419;SDS011;71621;52.030;113.516;2024-01-16T02:19:03;77.53;;;27.92;;
69419;SDS011;71621;52.030;113.516;2024-01-16T02:22:09;97.33;;;28.63;;
69419;SDS011;71621;52.030;113.516;2024-01-16T02:25:15;80.45;;;29.98;;
69419;SDS011;71621;52.030;113.516;2024-01-16T02:28:20;110.88;;;35.42;;
69419;SDS011;71621;52.030;113.516;2024-01-16T02:31:24;119.38;;;40.63;;
69419;SDS011;71621;52.030;113.516;2024-01-16T02:34:27;118.13;;;39.83;;
69419;SDS011;71621;52.030;113.516;2024-01-16T02:37:31;142.60;;;44.13;;
69419;SDS011;71621;52.030;113.516;2024-01-16T02:40:35;105.88;;;37.78;;
69419;SDS011;71621;52.030;113.516;2024-01-16T02:43:38;116.97;;;44.37;;
69419;SDS011;71621;52.030;113.516;2024-01-16T02:46:42;156.68;;;51.13;;
69419;SDS011;71621;52.030;113.516;2024-01-16T02:49:46;177.35;;;58.78;;
69419;SDS011;71621;52.030;113.516;2024-01-16T02:52:51;171.10;;;52.60;;
69419;SDS011;71621;52.030;113.516;2024-01-16T02:55:54;191.18;;;62.80;;
69419;SDS011;71621;52.030;113.516;2024-01-16T02:59:01;200.80;;;65.00;;
69419;SDS011;71621;52.030;113.516;2024-01-16T03:02:05;127.55;;;41.65;;
69419;SDS011;71621;52.030;113.516;2024-01-16T03:05:09;111.40;;;40.33;;
69419;SDS011;71621;52.030;113.516;2024-01-16T03:08:13;82.88;;;27.60;;
69419;SDS011;71621;52.030;113.516;2024-01-16T03:11:17;96.10;;;29.10;;
69419;SDS011;71621;52.030;113.516;2024-01-16T03:14:21;67.80;;;24.27;;
69419;SDS011;71621;52.030;113.516;2024-01-16T03:17:25;65.72;;;19.45;;
69419;SDS011;71621;52.030;113.516;2024-01-16T03:20:29;40.47;;;12.00;;
69419;SDS011;71621;52.030;113.516;2024-01-16T03:23:33;35.67;;;14.57;;
69419;SDS011;71621;52.030;113.516;2024-01-16T03:26:36;45.97;;;15.45;;
69419;SDS011;71621;52.030;113.516;2024-01-16T03:29:41;53.15;;;17.70;;
69419;SDS011;71621;52.030;113.516;2024-01-16T03:32:44;37.30;;;14.57;;
69419;SDS011;71621;52.030;113.516;2024-01-16T03:35:48;47.78;;;17.50;;
69419;SDS011;71621;52.030;113.516;2024-01-16T03:38:52;69.28;;;18.83;;
69419;SDS011;71621;52.030;113.516;2024-01-16T03:41:56;45.15;;;13.15;;
69419;SDS011;71621;52.030;113.516;2024-01-16T03:44:59;38.70;;;12.87;;
69419;SDS011;71621;52.030;113.516;2024-01-16T03:48:03;36.47;;;11.60;;
69419;SDS011;71621;52.030;113.516;2024-01-16T03:51:08;40.45;;;13.07;;
69419;SDS011;71621;52.030;113.516;2024-01-16T03:54:12;42.43;;;14.30;;
69419;SDS011;71621;52.030;113.516;2024-01-16T03:57:16;29.35;;;9.68;;
69419;SDS011;71621;52.030;113.516;2024-01-16T04:00:20;42.13;;;15.18;;
69419;SDS011;71621;52.030;113.516;2024-01-16T04:03:23;48.13;;;15.02;;
69419;SDS011;71621;52.030;113.516;2024-01-16T04:06:27;51.65;;;18.00;;
69419;SDS011;71621;52.030;113.516;2024-01-16T04:09:32;61.13;;;18.52;;
69419;SDS011;71621;52.030;113.516;2024-01-16T04:12:35;67.78;;;22.92;;
69419;SDS011;71621;52.030;113.516;2024-01-16T04:15:39;40.10;;;14.77;;
69419;SDS011;71621;52.030;113.516;2024-01-16T04:18:43;55.75;;;15.18;;
69419;SDS011;71621;52.030;113.516;2024-01-16T04:21:47;52.30;;;19.23;;
69419;SDS011;71621;52.030;113.516;2024-01-16T04:24:51;43.10;;;14.20;;
69419;SDS011;71621;52.030;113.516;2024-01-16T04:27:57;51.35;;;18.23;;
69419;SDS011;71621;52.030;113.516;2024-01-16T04:31:04;43.28;;;16.02;;
69419;SDS011;71621;52.030;113.516;2024-01-16T04:34:08;52.78;;;18.23;;
69419;SDS011;71621;52.030;113.516;2024-01-16T04:37:12;92.40;;;30.92;;
69419;SDS011;71621;52.030;113.516;2024-01-16T04:40:16;88.65;;;25.40;;
69419;SDS011;71621;52.030;113.516;2024-01-16T04:43:19;79.88;;;23.90;;
69419;SDS011;71621;52.030;113.516;2024-01-16T04:46:23;86.50;;;24.27;;
69419;SDS011;71621;52.030;113.516;2024-01-16T04:49:27;75.35;;;20.15;;
69419;SDS011;71621;52.030;113.516;2024-01-16T04:52:30;70.47;;;21.92;;
69419;SDS011;71621;52.030;113.516;2024-01-16T04:55:34;73.50;;;25.07;;
69419;SDS011;71621;52.030;113.516;2024-01-16T04:58:37;82.03;;;27.70;;
69419;SDS011;71621;52.030;113.516;2024-01-16T05:01:41;72.03;;;22.30;;
69419;SDS011;71621;52.030;113.516;2024-01-16T05:04:45;68.82;;;20.23;;
69419;SDS011;71621;52.030;113.516;2024-01-16T05:07:52;44.47;;;16.40;;
69419;SDS011;71621;52.030;113.516;2024-01-16T05:10:56;52.50;;;17.25;;
69419;SDS011;71621;52.030;113.516;2024-01-16T05:14:02;53.45;;;17.90;;
69419;SDS011;71621;52.030;113.516;2024-01-16T05:17:05;55.70;;;18.43;;
69419;SDS011;71621;52.030;113.516;2024-01-16T05:20:09;62.97;;;19.45;;
69419;SDS011;71621;52.030;113.516;2024-01-16T05:23:13;48.60;;;17.50;;
69419;SDS011;71621;52.030;113.516;2024-01-16T05:26:17;58.23;;;20.27;;
69419;SDS011;71621;52.030;113.516;2024-01-16T05:29:20;70.93;;;22.27;;
69419;SDS011;71621;52.030;113.516;2024-01-16T05:32:24;78.65;;;22.77;;
69419;SDS011;71621;52.030;113.516;2024-01-16T05:35:28;86.70;;;27.13;;
69419;SDS011;71621;52.030;113.516;2024-01-16T05:38:33;79.63;;;27.35;;
69419;SDS011;71621;52.030;113.516;2024-01-16T05:41:37;73.90;;;23.70;;
69419;SDS011;71621;52.030;113.516;2024-01-16T05:44:41;76.45;;;25.45;;
69419;SDS011;71621;52.030;113.516;2024-01-16T05:47:45;78.53;;;23.93;;
69419;SDS011;71621;52.030;113.516;2024-01-16T05:50:49;83.65;;;27.60;;
69419;SDS011;71621;52.030;113.516;2024-01-16T05:53:53;68.68;;;26.92;;
69419;SDS011;71621;52.030;113.516;2024-01-16T05:56:56;75.00;;;26.77;;
69419;SDS011;71621;52.030;113.516;2024-01-16T06:00:01;71.07;;;22.80;;
69419;SDS011;71621;52.030;113.516;2024-01-16T06:03:09;61.90;;;22.17;;
69419;SDS011;71621;52.030;113.516;2024-01-16T06:06:12;90.75;;;30.90;;
69419;SDS011;71621;52.030;113.516;2024-01-16T06:09:17;86.20;;;31.08;;
69419;SDS011;71621;52.030;113.516;2024-01-16T06:12:21;71.15;;;24.92;;
69419;SDS011;71621;52.030;113.516;2024-01-16T06:15:25;89.72;;;27.88;;
69419;SDS011;71621;52.030;113.516;2024-01-16T06:18:28;105.73;;;35.80;;
69419;SDS011;71621;52.030;113.516;2024-01-16T06:21:32;68.70;;;23.75;;
69419;SDS011;71621;52.030;113.516;2024-01-16T06:24:35;52.75;;;17.90;;
69419;SDS011;71621;52.030;113.516;2024-01-16T06:27:40;61.17;;;18.50;;
69419;SDS011;71621;52.030;113.516;2024-01-16T06:30:43;58.90;;;19.17;;
69419;SDS011;71621;52.030;113.516;2024-01-16T06:33:48;64.43;;;22.00;;
69419;SDS011;71621;52.030;113.516;2024-01-16T06:36:52;57.60;;;19.17;;
69419;SDS011;71621;52.030;113.516;2024-01-16T06:39:55;63.97;;;19.63;;
69419;SDS011;71621;52.030;113.516;2024-01-16T06:42:59;88.93;;;27.67;;
69419;SDS011;71621;52.030;113.516;2024-01-16T06:46:03;78.40;;;22.48;;
69419;SDS011;71621;52.030;113.516;2024-01-16T06:49:07;55.13;;;20.90;;
69419;SDS011;71621;52.030;113.516;2024-01-16T06:52:12;63.42;;;21.50;;
69419;SDS011;71621;52.030;113.516;2024-01-16T06:55:15;63.20;;;20.83;;
69419;SDS011;71621;52.030;113.516;2024-01-16T06:58:19;59.40;;;20.77;;
69419;SDS011;71621;52.030;113.516;2024-01-16T07:01:23;68.40;;;24.48;;
69419;SDS011;71621;52.030;113.516;2024-01-16T07:04:26;61.55;;;21.45;;
69419;SDS011;71621;52.030;113.516;2024-01-16T07:07:30;74.88;;;24.45;;
69419;SDS011;71621;52.030;113.516;2024-01-16T07:10:34;77.38;;;28.02;;
69419;SDS011;71621;52.030;113.516;2024-01-16T07:13:38;85.00;;;30.50;;
69419;SDS011;71621;52.030;113.516;2024-01-16T07:16:45;81.72;;;27.00;;
69419;SDS011;71621;52.030;113.516;2024-01-16T07:19:49;66.07;;;25.93;;
69419;SDS011;71621;52.030;113.516;2024-01-16T07:22:53;59.00;;;20.35;;
69419;SDS011;71621;52.030;113.516;2024-01-16T07:25:56;74.45;;;23.98;;
69419;SDS011;71621;52.030;113.516;2024-01-16T07:29:02;72.57;;;21.83;;
69419;SDS011;71621;52.030;113.516;2024-01-16T07:32:06;174.35;;;52.60;;
69419;SDS011;71621;52.030;113.516;2024-01-16T07:35:10;66.47;;;23.73;;
69419;SDS011;71621;52.030;113.516;2024-01-16T07:38:14;65.95;;;24.27;;
69419;SDS011;71621;52.030;113.516;2024-01-16T07:41:18;110.45;;;37.83;;
69419;SDS011;71621;52.030;113.516;2024-01-16T07:44:22;108.88;;;38.85;;
69419;SDS011;71621;52.030;113.516;2024-01-16T07:47:26;105.10;;;34.92;;
69419;SDS011;71621;52.030;113.516;2024-01-16T07:50:29;108.10;;;38.00;;
69419;SDS011;71621;52.030;113.516;2024-01-16T07:53:33;110.20;;;40.10;;
69419;SDS011;71621;52.030;113.516;2024-01-16T07:56:37;114.13;;;37.47;;
69419;SDS011;71621;52.030;113.516;2024-01-16T07:59:41;116.93;;;37.60;;
69419;SDS011;71621;52.030;113.516;2024-01-16T08:02:45;92.82;;;33.58;;
69419;SDS011;71621;52.030;113.516;2024-01-16T08:05:49;112.40;;;35.08;;
69419;SDS011;71621;52.030;113.516;2024-01-16T08:08:53;90.18;;;30.42;;
69419;SDS011;71621;52.030;113.516;2024-01-16T08:11:57;86.57;;;29.67;;
69419;SDS011;71621;52.030;113.516;2024-01-16T08:15:01;104.15;;;31.65;;
69419;SDS011;71621;52.030;113.516;2024-01-16T08:18:05;146.18;;;44.97;;
69419;SDS011;71621;52.030;113.516;2024-01-16T08:21:09;120.70;;;38.20;;
69419;SDS011;71621;52.030;113.516;2024-01-16T08:24:14;143.13;;;43.08;;
69419;SDS011;71621;52.030;113.516;2024-01-16T08:27:19;123.63;;;39.25;;
69419;SDS011;71621;52.030;113.516;2024-01-16T08:30:23;107.60;;;34.60;;
69419;SDS011;71621;52.030;113.516;2024-01-16T08:33:26;110.60;;;38.15;;
69419;SDS011;71621;52.030;113.516;2024-01-16T08:36:44;110.43;;;37.95;;
69419;SDS011;71621;52.030;113.516;2024-01-16T08:39:47;199.82;;;64.90;;
69419;SDS011;71621;52.030;113.516;2024-01-16T08:42:51;141.48;;;46.00;;
69419;SDS011;71621;52.030;113.516;2024-01-16T08:45:59;132.13;;;46.13;;
69419;SDS011;71621;52.030;113.516;2024-01-16T08:49:03;111.32;;;35.90;;
69419;SDS011;71621;52.030;113.516;2024-01-16T08:52:07;114.47;;;38.20;;
69419;SDS011;71621;52.030;113.516;2024-01-16T08:55:11;131.10;;;39.60;;
69419;SDS011;71621;52.030;113.516;2024-01-16T08:58:14;124.05;;;39.10;;
69419;SDS011;71621;52.030;113.516;2024-01-16T09:01:18;106.00;;;34.33;;
69419;SDS011;71621;52.030;113.516;2024-01-16T09:04:23;132.07;;;44.33;;
69419;SDS011;71621;52.030;113.516;2024-01-16T09:07:27;121.15;;;38.78;;
69419;SDS011;71621;52.030;113.516;2024-01-16T09:10:31;118.13;;;38.85;;
69419;SDS011;71621;52.030;113.516;2024-01-16T09:13:35;109.32;;;35.30;;
69419;SDS011;71621;52.030;113.516;2024-01-16T09:16:39;97.82;;;33.03;;
69419;SDS011;71621;52.030;113.516;2024-01-16T09:19:43;88.40;;;29.33;;
69419;SDS011;71621;52.030;113.516;2024-01-16T09:22:47;95.27;;;28.80;;
69419;SDS011;71621;52.030;113.516;2024-01-16T09:25:51;170.00;;;49.13;;
69419;SDS011;71621;52.030;113.516;2024-01-16T09:28:55;82.38;;;26.13;;
69419;SDS011;71621;52.030;113.516;2024-01-16T09:31:59;67.72;;;24.15;;
69419;SDS011;71621;52.030;113.516;2024-01-16T09:35:04;123.97;;;35.38;;
69419;SDS011;71621;52.030;113.516;2024-01-16T09:38:10;88.65;;;27.05;;
69419;SDS011;71621;52.030;113.516;2024-01-16T09:41:14;96.00;;;30.10;;
69419;SDS011;71621;52.030;113.516;2024-01-16T09:44:18;74.73;;;24.03;;
69419;SDS011;71621;52.030;113.516;2024-01-16T09:47:24;65.78;;;20.95;;
69419;SDS011;71621;52.030;113.516;2024-01-16T09:50:28;42.92;;;15.02;;
69419;SDS011;71621;52.030;113.516;2024-01-16T09:53:32;50.13;;;20.23;;
69419;SDS011;71621;52.030;113.516;2024-01-16T09:56:39;65.47;;;19.42;;
69419;SDS011;71621;52.030;113.516;2024-01-16T09:59:48;51.22;;;16.38;;
69419;SDS011;71621;52.030;113.516;2024-01-16T10:02:52;39.55;;;13.50;;
69419;SDS011;71621;52.030;113.516;2024-01-16T10:06:05;41.57;;;14.17;;
69419;SDS011;71621;52.030;113.516;2024-01-16T10:09:10;33.58;;;13.05;;
69419;SDS011;71621;52.030;113.516;2024-01-16T10:12:15;35.10;;;13.32;;
69419;SDS011;71621;52.030;113.516;2024-01-16T10:15:19;30.80;;;11.03;;
69419;SDS011;71621;52.030;113.516;2024-01-16T10:18:27;39.67;;;16.38;;
69419;SDS011;71621;52.030;113.516;2024-01-16T10:21:32;44.40;;;13.38;;
69419;SDS011;71621;52.030;113.516;2024-01-16T10:24:37;33.38;;;13.18;;
69419;SDS011;71621;52.030;113.516;2024-01-16T10:27:40;46.80;;;16.67;;
69419;SDS011;71621;52.030;113.516;2024-01-16T10:30:44;36.45;;;15.23;;
69419;SDS011;71621;52.030;113.516;2024-01-16T10:33:48;47.42;;;16.55;;
69419;SDS011;71621;52.030;113.516;2024-01-16T10:36:58;64.47;;;24.40;;
69419;SDS011;71621;52.030;113.516;2024-01-16T10:40:04;52.35;;;18.05;;
69419;SDS011;71621;52.030;113.516;2024-01-16T10:43:10;57.20;;;18.25;;
69419;SDS011;71621;52.030;113.516;2024-01-16T10:46:21;205.40;;;74.32;;
69419;SDS011;71621;52.030;113.516;2024-01-16T10:49:27;38.07;;;14.70;;
69419;SDS011;71621;52.030;113.516;2024-01-16T10:52:47;51.47;;;19.05;;
69419;SDS011;71621;52.030;113.516;2024-01-16T10:55:55;51.33;;;21.35;;
69419;SDS011;71621;52.030;113.516;2024-01-16T10:59:24;79.22;;;26.13;;
69419;SDS011;71621;52.030;113.516;2024-01-16T11:03:24;41.77;;;16.73;;
69419;SDS011;71621;52.030;113.516;2024-01-16T11:06:04;51.50;;;18.70;;
69419;SDS011;71621;52.030;113.516;2024-01-16T11:09:12;37.83;;;13.80;;
69419;SDS011;71621;52.030;113.516;2024-01-16T11:12:19;18.50;;;7.60;;
69419;SDS011;71621;52.030;113.516;2024-01-16T11:15:26;29.50;;;10.10;;
69419;SDS011;71621;52.030;113.516;2024-01-16T11:18:34;50.35;;;16.98;;
69419;SDS011;71621;52.030;113.516;2024-01-16T11:21:37;48.05;;;16.83;;
69419;SDS011;71621;52.030;113.516;2024-01-16T11:24:43;18.88;;;6.68;;
69419;SDS011;71621;52.030;113.516;2024-01-16T11:27:48;13.23;;;4.15;;
69419;SDS011;71621;52.030;113.516;2024-01-16T11:30:54;12.25;;;4.90;;
69419;SDS011;71621;52.030;113.516;2024-01-16T11:33:58;18.17;;;5.78;;
69419;SDS011;71621;52.030;113.516;2024-01-16T11:37:04;20.43;;;7.43;;
69419;SDS011;71621;52.030;113.516;2024-01-16T11:50:09;8.40;;;2.78;;
69419;SDS011;71621;52.030;113.516;2024-01-16T12:00:07;31.37;;;8.17;;
69419;SDS011;71621;52.030;113.516;2024-01-16T12:03:24;37.63;;;11.70;;
69419;SDS011;71621;52.030;113.516;2024-01-16T12:06:36;13.95;;;3.83;;
69419;SDS011;71621;52.030;113.516;2024-01-16T12:09:41;14.73;;;3.93;;
69419;SDS011;71621;52.030;113.516;2024-01-16T12:12:45;15.02;;;4.47;;
69419;SDS011;71621;52.030;113.516;2024-01-16T12:15:58;7.78;;;2.38;;
69419;SDS011;71621;52.030;113.516;2024-01-16T12:19:09;24.30;;;7.78;;
69419;SDS011;71621;52.030;113.516;2024-01-16T12:22:15;11.73;;;3.40;;
69419;SDS011;71621;52.030;113.516;2024-01-16T12:25:27;10.00;;;2.63;;
69419;SDS011;71621;52.030;113.516;2024-01-16T12:28:54;12.88;;;3.35;;
69419;SDS011;71621;52.030;113.516;2024-01-16T12:32:05;9.90;;;1.60;;
69419;SDS011;71621;52.030;113.516;2024-01-16T12:35:09;9.15;;;2.33;;
69419;SDS011;71621;52.030;113.516;2024-01-16T12:38:13;12.00;;;2.30;;
69419;SDS011;71621;52.030;113.516;2024-01-16T12:41:18;9.07;;;2.13;;
69419;SDS011;71621;52.030;113.516;2024-01-16T12:44:37;11.97;;;3.47;;
69419;SDS011;71621;52.030;113.516;2024-01-16T12:47:41;12.95;;;3.75;;
69419;SDS011;71621;52.030;113.516;2024-01-16T12:50:45;18.25;;;4.35;;
69419;SDS011;71621;52.030;113.516;2024-01-16T12:53:49;20.47;;;4.40;;
69419;SDS011;71621;52.030;113.516;2024-01-16T12:56:59;11.73;;;3.70;;
69419;SDS011;71621;52.030;113.516;2024-01-16T13:00:21;5.80;;;1.73;;
69419;SDS011;71621;52.030;113.516;2024-01-16T13:03:28;50.92;;;14.70;;
69419;SDS011;71621;52.030;113.516;2024-01-16T13:06:32;10.38;;;2.70;;
69419;SDS011;71621;52.030;113.516;2024-01-16T13:09:37;17.13;;;4.82;;
69419;SDS011;71621;52.030;113.516;2024-01-16T13:12:41;9.00;;;3.10;;
69419;SDS011;71621;52.030;113.516;2024-01-16T13:15:45;22.30;;;5.70;;
69419;SDS011;71621;52.030;113.516;2024-01-16T13:18:49;15.98;;;5.45;;
69419;SDS011;71621;52.030;113.516;2024-01-16T13:22:05;15.70;;;3.97;;
69419;SDS011;71621;52.030;113.516;2024-01-16T13:25:09;9.30;;;3.13;;
69419;SDS011;71621;52.030;113.516;2024-01-16T13:28:14;24.65;;;6.40;;
69419;SDS011;71621;52.030;113.516;2024-01-16T13:31:19;11.48;;;3.35;;
69419;SDS011;71621;52.030;113.516;2024-01-16T13:34:22;17.25;;;4.20;;
69419;SDS011;71621;52.030;113.516;2024-01-16T13:37:29;24.85;;;7.05;;
69419;SDS011;71621;52.030;113.516;2024-01-16T13:40:33;16.17;;;4.55;;
69419;SDS011;71621;52.030;113.516;2024-01-16T13:43:37;14.95;;;3.17;;
69419;SDS011;71621;52.030;113.516;2024-01-16T13:46:41;13.87;;;3.57;;
69419;SDS011;71621;52.030;113.516;2024-01-16T13:50:06;12.32;;;3.00;;
69419;SDS011;71621;52.030;113.516;2024-01-16T13:53:10;10.85;;;2.40;;
69419;SDS011;71621;52.030;113.516;2024-01-16T13:56:16;16.07;;;3.27;;
69419;SDS011;71621;52.030;113.516;2024-01-16T13:59:36;8.10;;;2.72;;
69419;SDS011;71621;52.030;113.516;2024-01-16T14:02:42;12.45;;;2.70;;
69419;SDS011;71621;52.030;113.516;2024-01-16T14:05:46;10.02;;;2.83;;
69419;SDS011;71621;52.030;113.516;2024-01-16T14:08:50;12.80;;;3.00;;
69419;SDS011;71621;52.030;113.516;2024-01-16T14:11:54;10.93;;;2.40;;
69419;SDS011;71621;52.030;113.516;2024-01-16T14:14:58;15.88;;;3.65;;
69419;SDS011;71621;52.030;113.516;2024-01-16T14:18:03;13.40;;;3.97;;
69419;SDS011;71621;52.030;113.516;2024-01-16T14:21:07;12.60;;;3.53;;
69419;SDS011;71621;52.030;113.516;2024-01-16T14:24:11;13.45;;;3.15;;
69419;SDS011;71621;52.030;113.516;2024-01-16T14:27:15;19.13;;;4.93;;
69419;SDS011;71621;52.030;113.516;2024-01-16T14:30:19;12.77;;;3.17;;
69419;SDS011;71621;52.030;113.516;2024-01-16T14:33:23;13.40;;;3.33;;
69419;SDS011;71621;52.030;113.516;2024-01-16T14:36:27;17.17;;;3.80;;
69419;SDS011;71621;52.030;113.516;2024-01-16T14:39:30;12.15;;;3.58;;
69419;SDS011;71621;52.030;113.516;2024-01-16T14:42:35;5.28;;;1.95;;
69419;SDS011;71621;52.030;113.516;2024-01-16T14:45:38;3.22;;;0.90;;
69419;SDS011;71621;52.030;113.516;2024-01-16T14:48:43;5.07;;;0.97;;
69419;SDS011;71621;52.030;113.516;2024-01-16T14:51:48;5.20;;;0.82;;
69419;SDS011;71621;52.030;113.516;2024-01-16T14:54:53;5.88;;;1.30;;
69419;SDS011;71621;52.030;113.516;2024-01-16T14:57:57;6.77;;;1.60;;
69419;SDS011;71621;52.030;113.516;2024-01-16T15:01:04;8.52;;;1.25;;
69419;SDS011;71621;52.030;113.516;2024-01-16T15:04:10;11.40;;;2.50;;
69419;SDS011;71621;52.030;113.516;2024-01-16T15:07:15;7.97;;;1.40;;
69419;SDS011;71621;52.030;113.516;2024-01-16T15:10:18;14.20;;;1.92;;
69419;SDS011;71621;52.030;113.516;2024-01-16T15:13:23;6.50;;;1.58;;
69419;SDS011;71621;52.030;113.516;2024-01-16T15:16:27;8.73;;;2.00;;
69419;SDS011;71621;52.030;113.516;2024-01-16T15:19:32;7.27;;;2.50;;
69419;SDS011;71621;52.030;113.516;2024-01-16T15:22:39;11.73;;;2.22;;
69419;SDS011;71621;52.030;113.516;2024-01-16T15:25:48;4.03;;;0.98;;
69419;SDS011;71621;52.030;113.516;2024-01-16T15:28:52;6.77;;;1.37;;
69419;SDS011;71621;52.030;113.516;2024-01-16T15:31:56;5.43;;;1.23;;
69419;SDS011;71621;52.030;113.516;2024-01-16T15:34:59;4.40;;;1.30;;
69419;SDS011;71621;52.030;113.516;2024-01-16T15:38:03;4.45;;;0.75;;
69419;SDS011;71621;52.030;113.516;2024-01-16T15:41:07;4.00;;;0.50;;
69419;SDS011;71621;52.030;113.516;2024-01-16T15:44:12;4.28;;;1.13;;
69419;SDS011;71621;52.030;113.516;2024-01-16T15:47:15;3.13;;;0.82;;
69419;SDS011;71621;52.030;113.516;2024-01-16T15:50:19;5.73;;;1.30;;
69419;SDS011;71621;52.030;113.516;2024-01-16T15:53:24;5.50;;;1.70;;
69419;SDS011;71621;52.030;113.516;2024-01-16T15:56:28;6.40;;;1.88;;
69419;SDS011;71621;52.030;113.516;2024-01-16T15:59:31;11.97;;;2.73;;
69419;SDS011;71621;52.030;113.516;2024-01-16T16:02:36;9.85;;;2.40;;
69419;SDS011;71621;52.030;113.516;2024-01-16T16:05:41;12.82;;;1.92;;
69419;SDS011;71621;52.030;113.516;2024-01-16T16:08:46;11.27;;;2.72;;
69419;SDS011;71621;52.030;113.516;2024-01-16T16:11:50;19.40;;;3.72;;
69419;SDS011;71621;52.030;113.516;2024-01-16T16:14:54;18.95;;;3.80;;
69419;SDS011;71621;52.030;113.516;2024-01-16T16:17:59;11.52;;;2.88;;
69419;SDS011;71621;52.030;113.516;2024-01-16T16:21:03;12.33;;;2.43;;
69419;SDS011;71621;52.030;113.516;2024-01-16T16:24:10;10.20;;;2.55;;
69419;SDS011;71621;52.030;113.516;2024-01-16T16:27:24;9.30;;;2.08;;
69419;SDS011;71621;52.030;113.516;2024-01-16T16:30:28;9.87;;;1.63;;
69419;SDS011;71621;52.030;113.516;2024-01-16T16:33:32;4.95;;;1.05;;
69419;SDS011;71621;52.030;113.516;2024-01-16T16:36:36;9.05;;;1.92;;
69419;SDS011;71621;52.030;113.516;2024-01-16T16:39:44;5.82;;;1.73;;
69419;SDS011;71621;52.030;113.516;2024-01-16T16:42:47;8.23;;;1.63;;
69419;SDS011;71621;52.030;113.516;2024-01-16T16:45:51;9.95;;;1.30;;
69419;SDS011;71621;52.030;113.516;2024-01-16T16:48:55;4.72;;;1.58;;
69419;SDS011;71621;52.030;113.516;2024-01-16T16:51:59;6.17;;;1.77;;
69419;SDS011;71621;52.030;113.516;2024-01-16T16:55:03;4.55;;;0.73;;
69419;SDS011;71621;52.030;113.516;2024-01-16T16:58:07;8.35;;;1.75;;
69419;SDS011;71621;52.030;113.516;2024-01-16T17:01:13;7.07;;;0.80;;
69419;SDS011;71621;52.030;113.516;2024-01-16T17:04:19;4.15;;;1.00;;
69419;SDS011;71621;52.030;113.516;2024-01-16T17:07:24;11.88;;;2.38;;
69419;SDS011;71621;52.030;113.516;2024-01-16T17:10:28;5.93;;;1.75;;
69419;SDS011;71621;52.030;113.516;2024-01-16T17:13:31;8.57;;;1.63;;
69419;SDS011;71621;52.030;113.516;2024-01-16T17:16:35;4.28;;;0.80;;
69419;SDS011;71621;52.030;113.516;2024-01-16T17:19:39;4.13;;;1.17;;
69419;SDS011;71621;52.030;113.516;2024-01-16T17:22:43;6.27;;;1.40;;
69419;SDS011;71621;52.030;113.516;2024-01-16T17:25:47;5.22;;;2.13;;
69419;SDS011;71621;52.030;113.516;2024-01-16T17:28:51;5.72;;;1.65;;
69419;SDS011;71621;52.030;113.516;2024-01-16T17:31:55;5.07;;;1.33;;
69419;SDS011;71621;52.030;113.516;2024-01-16T17:34:59;4.05;;;0.65;;
69419;SDS011;71621;52.030;113.516;2024-01-16T17:38:03;6.88;;;0.95;;
69419;SDS011;71621;52.030;113.516;2024-01-16T17:41:07;10.05;;;3.00;;
69419;SDS011;71621;52.030;113.516;2024-01-16T17:44:11;23.55;;;5.07;;
69419;SDS011;71621;52.030;113.516;2024-01-16T17:47:14;4.05;;;1.20;;
69419;SDS011;71621;52.030;113.516;2024-01-16T17:50:19;4.75;;;1.20;;
69419;SDS011;71621;52.030;113.516;2024-01-16T17:53:23;11.07;;;3.87;;